sensor_id;sensor_type;location;lat;lon;timestamp;P1;durP1;ratioP1;P2;durP2;ratioP2
3845;SDS011;1938;50.812;7.738;2022-08-01T00:01:05;9.23;;;6.60;;
3845;SDS011;1938;50.812;7.738;2022-08-01T00:03:30;8.60;;;5.70;;
3845;SDS011;1938;50.812;7.738;2022-08-01T00:05:56;9.63;;;5.60;;
3845;SDS011;1938;50.812;7.738;2022-08-01T00:08:21;13.27;;;6.10;;
3845;SDS011;1938;50.812;7.738;2022-08-01T00:10:47;12.40;;;5.67;;
3845;SDS011;1938;50.812;7.738;2022-08-01T00:13:12;10.50;;;5.93;;
3845;SDS011;1938;50.812;7.738;2022-08-01T00:15:38;10.20;;;6.27;;
3845;SDS011;1938;50.812;7.738;2022-08-01T00:18:03;12.60;;;5.50;;
3845;SDS011;1938;50.812;7.738;2022-08-01T00:20:29;16.00;;;5.10;;
3845;SDS011;1938;50.812;7.738;2022-08-01T00:22:55;9.83;;;4.93;;
3845;SDS011;1938;50.812;7.738;2022-08-01T00:25:21;10.27;;;4.80;;
3845;SDS011;1938;50.812;7.738;2022-08-01T00:27:46;8.73;;;4.80;;
3845;SDS011;1938;50.812;7.738;2022-08-01T00:30:12;6.37;;;3.80;;
3845;SDS011;1938;50.812;7.738;2022-08-01T00:32:38;7.73;;;4.20;;
3845;SDS011;1938;50.812;7.738;2022-08-01T00:35:03;10.20;;;4.63;;
3845;SDS011;1938;50.812;7.738;2022-08-01T00:37:30;9.20;;;4.07;;
3845;SDS011;1938;50.812;7.738;2022-08-01T00:39:56;10.17;;;4.37;;
3845;SDS011;1938;50.812;7.738;2022-08-01T00:42:21;6.13;;;3.57;;
3845;SDS011;1938;50.812;7.738;2022-08-01T00:44:47;10.30;;;3.87;;
3845;SDS011;1938;50.812;7.738;2022-08-01T00:47:12;8.07;;;3.80;;
3845;SDS011;1938;50.812;7.738;2022-08-01T00:49:38;7.10;;;3.80;;
3845;SDS011;1938;50.812;7.738;2022-08-01T00:52:04;8.23;;;3.57;;
3845;SDS011;1938;50.812;7.738;2022-08-01T00:54:30;5.53;;;3.80;;
3845;SDS011;1938;50.812;7.738;2022-08-01T00:56:56;5.90;;;3.87;;
3845;SDS011;1938;50.812;7.738;2022-08-01T00:59:23;11.30;;;3.10;;
3845;SDS011;1938;50.812;7.738;2022-08-01T01:01:49;9.00;;;3.67;;
3845;SDS011;1938;50.812;7.738;2022-08-01T01:04:16;6.33;;;2.97;;
3845;SDS011;1938;50.812;7.738;2022-08-01T01:09:54;10.93;;;4.20;;
3845;SDS011;1938;50.812;7.738;2022-08-01T01:12:29;9.70;;;3.40;;
3845;SDS011;1938;50.812;7.738;2022-08-01T01:15:06;7.80;;;3.70;;
3845;SDS011;1938;50.812;7.738;2022-08-01T01:17:53;6.73;;;3.43;;
3845;SDS011;1938;50.812;7.738;2022-08-01T01:20:26;7.07;;;3.80;;
3845;SDS011;1938;50.812;7.738;2022-08-01T01:23:10;10.60;;;3.60;;
3845;SDS011;1938;50.812;7.738;2022-08-01T01:31:08;10.70;;;3.47;;
3845;SDS011;1938;50.812;7.738;2022-08-01T01:33:39;7.23;;;3.50;;
3845;SDS011;1938;50.812;7.738;2022-08-01T01:36:05;6.27;;;3.87;;
3845;SDS011;1938;50.812;7.738;2022-08-01T01:38:36;6.93;;;3.17;;
3845;SDS011;1938;50.812;7.738;2022-08-01T01:41:08;6.20;;;2.90;;
3845;SDS011;1938;50.812;7.738;2022-08-01T01:43:36;8.93;;;4.10;;
3845;SDS011;1938;50.812;7.738;2022-08-01T01:46:03;10.20;;;2.93;;
3845;SDS011;1938;50.812;7.738;2022-08-01T01:48:30;4.90;;;2.90;;
3845;SDS011;1938;50.812;7.738;2022-08-01T01:50:57;7.70;;;3.43;;
3845;SDS011;1938;50.812;7.738;2022-08-01T01:53:25;4.90;;;2.90;;
3845;SDS011;1938;50.812;7.738;2022-08-01T01:55:53;7.67;;;3.50;;
3845;SDS011;1938;50.812;7.738;2022-08-01T01:58:21;9.63;;;4.20;;
3845;SDS011;1938;50.812;7.738;2022-08-01T02:00:49;8.80;;;4.50;;
3845;SDS011;1938;50.812;7.738;2022-08-01T02:03:17;7.27;;;4.50;;
3845;SDS011;1938;50.812;7.738;2022-08-01T02:05:43;6.97;;;4.63;;
3845;SDS011;1938;50.812;7.738;2022-08-01T02:08:09;10.83;;;4.33;;
3845;SDS011;1938;50.812;7.738;2022-08-01T02:10:36;10.23;;;4.40;;
3845;SDS011;1938;50.812;7.738;2022-08-01T02:13:04;10.67;;;5.70;;
3845;SDS011;1938;50.812;7.738;2022-08-01T02:15:31;8.73;;;4.63;;
3845;SDS011;1938;50.812;7.738;2022-08-01T02:17:59;12.63;;;5.43;;
3845;SDS011;1938;50.812;7.738;2022-08-01T02:20:27;7.50;;;5.10;;
3845;SDS011;1938;50.812;7.738;2022-08-01T02:23:13;10.40;;;5.40;;
3845;SDS011;1938;50.812;7.738;2022-08-01T02:28:07;17.20;;;4.53;;
3845;SDS011;1938;50.812;7.738;2022-08-01T02:30:39;11.33;;;6.10;;
3845;SDS011;1938;50.812;7.738;2022-08-01T02:35:58;9.30;;;5.47;;
3845;SDS011;1938;50.812;7.738;2022-08-01T02:38:27;9.87;;;5.67;;
3845;SDS011;1938;50.812;7.738;2022-08-01T02:40:57;14.90;;;6.90;;
3845;SDS011;1938;50.812;7.738;2022-08-01T02:43:24;10.03;;;5.77;;
3845;SDS011;1938;50.812;7.738;2022-08-01T02:45:54;8.40;;;5.40;;
3845;SDS011;1938;50.812;7.738;2022-08-01T02:48:25;9.20;;;5.20;;
3845;SDS011;1938;50.812;7.738;2022-08-01T02:50:53;12.63;;;6.70;;
3845;SDS011;1938;50.812;7.738;2022-08-01T02:53:21;17.60;;;7.30;;
3845;SDS011;1938;50.812;7.738;2022-08-01T02:55:48;12.90;;;8.13;;
3845;SDS011;1938;50.812;7.738;2022-08-01T02:58:16;12.83;;;7.00;;
3845;SDS011;1938;50.812;7.738;2022-08-01T03:00:44;14.63;;;8.00;;
3845;SDS011;1938;50.812;7.738;2022-08-01T03:03:12;14.47;;;9.00;;
3845;SDS011;1938;50.812;7.738;2022-08-01T03:05:40;16.37;;;10.50;;
3845;SDS011;1938;50.812;7.738;2022-08-01T03:08:08;14.30;;;9.30;;
3845;SDS011;1938;50.812;7.738;2022-08-01T03:10:36;15.30;;;10.47;;
3845;SDS011;1938;50.812;7.738;2022-08-01T03:13:03;13.90;;;10.37;;
3845;SDS011;1938;50.812;7.738;2022-08-01T03:15:32;18.93;;;10.03;;
3845;SDS011;1938;50.812;7.738;2022-08-01T03:18:00;21.90;;;11.60;;
3845;SDS011;1938;50.812;7.738;2022-08-01T03:20:30;22.30;;;10.70;;
3845;SDS011;1938;50.812;7.738;2022-08-01T03:22:57;18.03;;;10.70;;
3845;SDS011;1938;50.812;7.738;2022-08-01T03:25:28;22.40;;;12.33;;
3845;SDS011;1938;50.812;7.738;2022-08-01T03:27:56;20.70;;;12.00;;
3845;SDS011;1938;50.812;7.738;2022-08-01T03:30:24;17.00;;;12.40;;
3845;SDS011;1938;50.812;7.738;2022-08-01T03:32:52;22.67;;;12.07;;
3845;SDS011;1938;50.812;7.738;2022-08-01T03:35:18;18.00;;;11.17;;
3845;SDS011;1938;50.812;7.738;2022-08-01T03:37:50;18.53;;;12.13;;
3845;SDS011;1938;50.812;7.738;2022-08-01T03:40:28;19.00;;;12.17;;
3845;SDS011;1938;50.812;7.738;2022-08-01T03:43:02;24.70;;;13.10;;
3845;SDS011;1938;50.812;7.738;2022-08-01T03:45:34;26.43;;;14.63;;
3845;SDS011;1938;50.812;7.738;2022-08-01T03:48:03;20.57;;;12.97;;
3845;SDS011;1938;50.812;7.738;2022-08-01T03:50:33;23.40;;;14.70;;
3845;SDS011;1938;50.812;7.738;2022-08-01T03:53:02;25.07;;;15.27;;
3845;SDS011;1938;50.812;7.738;2022-08-01T03:55:31;20.47;;;13.07;;
3845;SDS011;1938;50.812;7.738;2022-08-01T03:57:58;24.10;;;13.80;;
3845;SDS011;1938;50.812;7.738;2022-08-01T04:00:24;23.40;;;14.93;;
3845;SDS011;1938;50.812;7.738;2022-08-01T04:02:51;20.33;;;13.83;;
3845;SDS011;1938;50.812;7.738;2022-08-01T04:05:17;25.33;;;14.50;;
3845;SDS011;1938;50.812;7.738;2022-08-01T04:07:46;26.83;;;13.90;;
3845;SDS011;1938;50.812;7.738;2022-08-01T04:10:20;21.17;;;14.43;;
3845;SDS011;1938;50.812;7.738;2022-08-01T04:12:46;25.77;;;14.57;;
3845;SDS011;1938;50.812;7.738;2022-08-01T04:15:12;23.87;;;13.80;;
3845;SDS011;1938;50.812;7.738;2022-08-01T04:17:38;29.27;;;15.60;;
3845;SDS011;1938;50.812;7.738;2022-08-01T04:20:04;23.70;;;14.90;;
3845;SDS011;1938;50.812;7.738;2022-08-01T04:22:30;21.13;;;14.40;;
3845;SDS011;1938;50.812;7.738;2022-08-01T04:24:56;24.87;;;13.90;;
3845;SDS011;1938;50.812;7.738;2022-08-01T04:27:24;26.00;;;14.07;;
3845;SDS011;1938;50.812;7.738;2022-08-01T04:29:54;19.07;;;13.80;;
3845;SDS011;1938;50.812;7.738;2022-08-01T04:32:22;19.60;;;12.97;;
3845;SDS011;1938;50.812;7.738;2022-08-01T04:34:51;31.50;;;16.23;;
3845;SDS011;1938;50.812;7.738;2022-08-01T04:37:22;24.50;;;14.77;;
3845;SDS011;1938;50.812;7.738;2022-08-01T04:39:50;30.80;;;15.13;;
3845;SDS011;1938;50.812;7.738;2022-08-01T04:42:17;23.43;;;14.70;;
3845;SDS011;1938;50.812;7.738;2022-08-01T04:44:43;31.20;;;15.20;;
3845;SDS011;1938;50.812;7.738;2022-08-01T04:47:09;24.00;;;16.00;;
3845;SDS011;1938;50.812;7.738;2022-08-01T04:49:37;26.60;;;18.30;;
3845;SDS011;1938;50.812;7.738;2022-08-01T04:52:03;20.40;;;13.80;;
3845;SDS011;1938;50.812;7.738;2022-08-01T04:54:31;26.73;;;14.87;;
3845;SDS011;1938;50.812;7.738;2022-08-01T04:56:58;23.60;;;14.30;;
3845;SDS011;1938;50.812;7.738;2022-08-01T04:59:34;22.30;;;14.73;;
3845;SDS011;1938;50.812;7.738;2022-08-01T05:02:04;25.67;;;14.77;;
3845;SDS011;1938;50.812;7.738;2022-08-01T05:04:44;27.30;;;17.03;;
3845;SDS011;1938;50.812;7.738;2022-08-01T05:07:11;30.50;;;17.77;;
3845;SDS011;1938;50.812;7.738;2022-08-01T05:09:39;27.67;;;17.43;;
3845;SDS011;1938;50.812;7.738;2022-08-01T05:12:10;32.63;;;17.20;;
3845;SDS011;1938;50.812;7.738;2022-08-01T05:14:36;28.83;;;16.63;;
3845;SDS011;1938;50.812;7.738;2022-08-01T05:17:02;29.70;;;17.07;;
3845;SDS011;1938;50.812;7.738;2022-08-01T05:19:29;39.10;;;16.47;;
3845;SDS011;1938;50.812;7.738;2022-08-01T05:22:02;27.60;;;17.80;;
3845;SDS011;1938;50.812;7.738;2022-08-01T05:24:32;27.57;;;17.30;;
3845;SDS011;1938;50.812;7.738;2022-08-01T05:26:59;39.73;;;22.00;;
3845;SDS011;1938;50.812;7.738;2022-08-01T05:29:25;35.67;;;17.60;;
3845;SDS011;1938;50.812;7.738;2022-08-01T05:31:53;29.30;;;16.13;;
3845;SDS011;1938;50.812;7.738;2022-08-01T05:34:19;28.23;;;16.20;;
3845;SDS011;1938;50.812;7.738;2022-08-01T05:36:45;33.33;;;17.40;;
3845;SDS011;1938;50.812;7.738;2022-08-01T05:39:11;27.70;;;15.47;;
3845;SDS011;1938;50.812;7.738;2022-08-01T05:41:38;27.60;;;17.00;;
3845;SDS011;1938;50.812;7.738;2022-08-01T05:44:04;29.33;;;16.33;;
3845;SDS011;1938;50.812;7.738;2022-08-01T05:46:30;26.07;;;15.60;;
3845;SDS011;1938;50.812;7.738;2022-08-01T05:48:59;23.53;;;17.30;;
3845;SDS011;1938;50.812;7.738;2022-08-01T05:51:25;26.40;;;16.43;;
3845;SDS011;1938;50.812;7.738;2022-08-01T05:53:52;31.43;;;16.37;;
3845;SDS011;1938;50.812;7.738;2022-08-01T05:56:18;28.80;;;18.80;;
3845;SDS011;1938;50.812;7.738;2022-08-01T05:58:45;28.10;;;17.63;;
3845;SDS011;1938;50.812;7.738;2022-08-01T06:01:10;29.30;;;18.97;;
3845;SDS011;1938;50.812;7.738;2022-08-01T06:03:36;27.47;;;18.97;;
3845;SDS011;1938;50.812;7.738;2022-08-01T06:06:02;24.03;;;16.47;;
3845;SDS011;1938;50.812;7.738;2022-08-01T06:08:27;29.60;;;19.90;;
3845;SDS011;1938;50.812;7.738;2022-08-01T06:10:53;26.23;;;16.83;;
3845;SDS011;1938;50.812;7.738;2022-08-01T06:13:19;26.10;;;16.67;;
3845;SDS011;1938;50.812;7.738;2022-08-01T06:15:45;20.60;;;14.50;;
3845;SDS011;1938;50.812;7.738;2022-08-01T06:18:12;24.00;;;12.73;;
3845;SDS011;1938;50.812;7.738;2022-08-01T06:20:37;17.40;;;11.60;;
3845;SDS011;1938;50.812;7.738;2022-08-01T06:23:03;15.23;;;10.53;;
3845;SDS011;1938;50.812;7.738;2022-08-01T06:25:29;13.90;;;9.43;;
3845;SDS011;1938;50.812;7.738;2022-08-01T06:27:55;18.80;;;12.20;;
3845;SDS011;1938;50.812;7.738;2022-08-01T06:30:20;13.07;;;10.90;;
3845;SDS011;1938;50.812;7.738;2022-08-01T06:32:46;17.63;;;11.87;;
3845;SDS011;1938;50.812;7.738;2022-08-01T06:35:12;18.30;;;13.27;;
3845;SDS011;1938;50.812;7.738;2022-08-01T06:37:38;21.20;;;13.13;;
3845;SDS011;1938;50.812;7.738;2022-08-01T06:40:04;21.30;;;12.90;;
3845;SDS011;1938;50.812;7.738;2022-08-01T06:42:32;17.10;;;12.63;;
3845;SDS011;1938;50.812;7.738;2022-08-01T06:45:09;17.80;;;13.10;;
3845;SDS011;1938;50.812;7.738;2022-08-01T06:47:37;26.10;;;14.63;;
3845;SDS011;1938;50.812;7.738;2022-08-01T06:50:04;21.20;;;13.73;;
3845;SDS011;1938;50.812;7.738;2022-08-01T06:52:30;23.27;;;13.73;;
3845;SDS011;1938;50.812;7.738;2022-08-01T06:54:56;20.10;;;12.07;;
3845;SDS011;1938;50.812;7.738;2022-08-01T06:57:22;20.47;;;13.37;;
3845;SDS011;1938;50.812;7.738;2022-08-01T06:59:47;18.73;;;12.40;;
3845;SDS011;1938;50.812;7.738;2022-08-01T07:02:13;18.97;;;14.20;;
3845;SDS011;1938;50.812;7.738;2022-08-01T07:04:38;19.60;;;14.03;;
3845;SDS011;1938;50.812;7.738;2022-08-01T07:07:04;19.67;;;13.80;;
3845;SDS011;1938;50.812;7.738;2022-08-01T07:09:29;19.23;;;12.10;;
3845;SDS011;1938;50.812;7.738;2022-08-01T07:11:55;23.57;;;13.23;;
3845;SDS011;1938;50.812;7.738;2022-08-01T07:14:21;20.33;;;14.57;;
3845;SDS011;1938;50.812;7.738;2022-08-01T07:16:48;18.80;;;12.30;;
3845;SDS011;1938;50.812;7.738;2022-08-01T07:19:14;20.17;;;12.27;;
3845;SDS011;1938;50.812;7.738;2022-08-01T07:21:40;20.97;;;12.50;;
3845;SDS011;1938;50.812;7.738;2022-08-01T07:24:13;17.80;;;12.03;;
3845;SDS011;1938;50.812;7.738;2022-08-01T07:26:40;18.87;;;12.50;;
3845;SDS011;1938;50.812;7.738;2022-08-01T07:29:10;25.67;;;12.20;;
3845;SDS011;1938;50.812;7.738;2022-08-01T07:31:35;21.23;;;12.50;;
3845;SDS011;1938;50.812;7.738;2022-08-01T07:34:01;18.13;;;12.80;;
3845;SDS011;1938;50.812;7.738;2022-08-01T07:36:26;18.83;;;12.57;;
3845;SDS011;1938;50.812;7.738;2022-08-01T07:38:52;21.33;;;13.37;;
3845;SDS011;1938;50.812;7.738;2022-08-01T07:41:17;18.53;;;13.27;;
3845;SDS011;1938;50.812;7.738;2022-08-01T07:43:43;19.47;;;11.80;;
3845;SDS011;1938;50.812;7.738;2022-08-01T07:46:09;17.60;;;10.50;;
3845;SDS011;1938;50.812;7.738;2022-08-01T07:48:34;21.40;;;10.53;;
3845;SDS011;1938;50.812;7.738;2022-08-01T07:51:00;20.70;;;11.10;;
3845;SDS011;1938;50.812;7.738;2022-08-01T07:53:27;14.63;;;9.73;;
3845;SDS011;1938;50.812;7.738;2022-08-01T07:55:52;14.97;;;8.87;;
3845;SDS011;1938;50.812;7.738;2022-08-01T07:58:18;16.77;;;8.83;;
3845;SDS011;1938;50.812;7.738;2022-08-01T08:00:43;12.67;;;8.90;;
3845;SDS011;1938;50.812;7.738;2022-08-01T08:03:09;11.40;;;8.07;;
3845;SDS011;1938;50.812;7.738;2022-08-01T08:05:35;10.90;;;8.20;;
3845;SDS011;1938;50.812;7.738;2022-08-01T08:08:01;13.23;;;8.50;;
3845;SDS011;1938;50.812;7.738;2022-08-01T08:10:31;12.90;;;8.40;;
3845;SDS011;1938;50.812;7.738;2022-08-01T08:12:57;13.40;;;8.67;;
3845;SDS011;1938;50.812;7.738;2022-08-01T08:15:23;11.90;;;6.90;;
3845;SDS011;1938;50.812;7.738;2022-08-01T08:17:49;11.23;;;7.30;;
3845;SDS011;1938;50.812;7.738;2022-08-01T08:20:14;8.90;;;6.77;;
3845;SDS011;1938;50.812;7.738;2022-08-01T08:22:40;13.47;;;7.07;;
3845;SDS011;1938;50.812;7.738;2022-08-01T08:25:06;12.17;;;7.30;;
3845;SDS011;1938;50.812;7.738;2022-08-01T08:27:33;8.27;;;6.03;;
3845;SDS011;1938;50.812;7.738;2022-08-01T08:30:00;11.30;;;6.40;;
3845;SDS011;1938;50.812;7.738;2022-08-01T08:32:26;10.10;;;5.83;;
3845;SDS011;1938;50.812;7.738;2022-08-01T08:34:51;9.20;;;5.27;;
3845;SDS011;1938;50.812;7.738;2022-08-01T08:37:17;9.43;;;5.07;;
3845;SDS011;1938;50.812;7.738;2022-08-01T08:39:43;13.10;;;5.07;;
3845;SDS011;1938;50.812;7.738;2022-08-01T08:42:09;8.60;;;5.37;;
3845;SDS011;1938;50.812;7.738;2022-08-01T08:44:36;6.83;;;4.60;;
3845;SDS011;1938;50.812;7.738;2022-08-01T08:47:03;6.17;;;3.80;;
3845;SDS011;1938;50.812;7.738;2022-08-01T08:49:30;6.40;;;4.40;;
3845;SDS011;1938;50.812;7.738;2022-08-01T08:51:57;7.80;;;4.90;;
3845;SDS011;1938;50.812;7.738;2022-08-01T08:54:25;10.87;;;4.93;;
3845;SDS011;1938;50.812;7.738;2022-08-01T08:56:51;7.53;;;4.70;;
3845;SDS011;1938;50.812;7.738;2022-08-01T08:59:18;4.50;;;3.63;;
3845;SDS011;1938;50.812;7.738;2022-08-01T09:01:45;6.73;;;4.50;;
3845;SDS011;1938;50.812;7.738;2022-08-01T09:04:11;7.33;;;5.27;;
3845;SDS011;1938;50.812;7.738;2022-08-01T09:06:37;6.37;;;4.13;;
3845;SDS011;1938;50.812;7.738;2022-08-01T09:09:04;10.53;;;4.60;;
3845;SDS011;1938;50.812;7.738;2022-08-01T09:11:30;6.10;;;3.83;;
3845;SDS011;1938;50.812;7.738;2022-08-01T09:14:12;4.73;;;3.63;;
3845;SDS011;1938;50.812;7.738;2022-08-01T09:16:40;7.00;;;3.33;;
3845;SDS011;1938;50.812;7.738;2022-08-01T09:21:59;4.83;;;3.40;;
3845;SDS011;1938;50.812;7.738;2022-08-01T09:24:26;6.50;;;3.80;;
3845;SDS011;1938;50.812;7.738;2022-08-01T09:26:53;4.53;;;2.93;;
3845;SDS011;1938;50.812;7.738;2022-08-01T09:29:21;5.87;;;2.80;;
3845;SDS011;1938;50.812;7.738;2022-08-01T09:31:52;12.03;;;3.50;;
3845;SDS011;1938;50.812;7.738;2022-08-01T09:34:26;5.83;;;3.07;;
3845;SDS011;1938;50.812;7.738;2022-08-01T09:36:57;5.93;;;3.00;;
3845;SDS011;1938;50.812;7.738;2022-08-01T09:39:31;3.37;;;2.90;;
3845;SDS011;1938;50.812;7.738;2022-08-01T09:42:18;4.20;;;2.97;;
3845;SDS011;1938;50.812;7.738;2022-08-01T09:44:45;3.90;;;2.90;;
3845;SDS011;1938;50.812;7.738;2022-08-01T09:47:11;4.90;;;3.60;;
3845;SDS011;1938;50.812;7.738;2022-08-01T09:49:38;4.53;;;3.70;;
3845;SDS011;1938;50.812;7.738;2022-08-01T09:52:11;4.13;;;3.60;;
3845;SDS011;1938;50.812;7.738;2022-08-01T09:57:24;4.73;;;4.27;;
3845;SDS011;1938;50.812;7.738;2022-08-01T09:59:51;6.00;;;4.20;;
3845;SDS011;1938;50.812;7.738;2022-08-01T10:05:01;7.57;;;5.13;;
3845;SDS011;1938;50.812;7.738;2022-08-01T10:07:31;7.47;;;5.03;;
3845;SDS011;1938;50.812;7.738;2022-08-01T10:10:14;6.73;;;5.17;;
3845;SDS011;1938;50.812;7.738;2022-08-01T10:12:40;7.13;;;5.10;;
3845;SDS011;1938;50.812;7.738;2022-08-01T10:15:07;6.77;;;4.90;;
3845;SDS011;1938;50.812;7.738;2022-08-01T10:17:34;8.50;;;3.97;;
3845;SDS011;1938;50.812;7.738;2022-08-01T10:20:03;6.23;;;4.40;;
3845;SDS011;1938;50.812;7.738;2022-08-01T10:22:30;5.40;;;3.90;;
3845;SDS011;1938;50.812;7.738;2022-08-01T10:24:56;4.50;;;3.80;;
3845;SDS011;1938;50.812;7.738;2022-08-01T10:27:23;4.83;;;3.90;;
3845;SDS011;1938;50.812;7.738;2022-08-01T10:30:00;6.00;;;4.13;;
3845;SDS011;1938;50.812;7.738;2022-08-01T10:32:32;5.77;;;4.70;;
3845;SDS011;1938;50.812;7.738;2022-08-01T10:34:59;5.70;;;3.87;;
3845;SDS011;1938;50.812;7.738;2022-08-01T10:37:27;6.23;;;3.53;;
3845;SDS011;1938;50.812;7.738;2022-08-01T10:39:53;5.07;;;3.93;;
3845;SDS011;1938;50.812;7.738;2022-08-01T10:42:19;4.67;;;3.87;;
3845;SDS011;1938;50.812;7.738;2022-08-01T10:44:45;4.00;;;3.60;;
3845;SDS011;1938;50.812;7.738;2022-08-01T10:47:13;4.40;;;4.00;;
3845;SDS011;1938;50.812;7.738;2022-08-01T10:49:43;5.00;;;4.43;;
3845;SDS011;1938;50.812;7.738;2022-08-01T10:52:19;5.87;;;4.03;;
3845;SDS011;1938;50.812;7.738;2022-08-01T10:54:45;6.70;;;4.27;;
3845;SDS011;1938;50.812;7.738;2022-08-01T10:57:11;5.67;;;4.77;;
3845;SDS011;1938;50.812;7.738;2022-08-01T10:59:48;6.37;;;4.20;;
3845;SDS011;1938;50.812;7.738;2022-08-01T11:02:28;6.23;;;4.70;;
3845;SDS011;1938;50.812;7.738;2022-08-01T11:04:58;6.40;;;3.60;;
3845;SDS011;1938;50.812;7.738;2022-08-01T11:07:44;5.50;;;3.70;;
3845;SDS011;1938;50.812;7.738;2022-08-01T11:10:19;4.30;;;3.60;;
3845;SDS011;1938;50.812;7.738;2022-08-01T11:12:55;6.50;;;3.67;;
3845;SDS011;1938;50.812;7.738;2022-08-01T11:15:22;3.53;;;3.13;;
3845;SDS011;1938;50.812;7.738;2022-08-01T11:17:55;5.60;;;4.17;;
3845;SDS011;1938;50.812;7.738;2022-08-01T11:20:43;5.40;;;3.93;;
3845;SDS011;1938;50.812;7.738;2022-08-01T11:23:19;5.20;;;3.87;;
3845;SDS011;1938;50.812;7.738;2022-08-01T11:33:11;5.33;;;3.87;;
3845;SDS011;1938;50.812;7.738;2022-08-01T11:35:38;7.30;;;4.60;;
3845;SDS011;1938;50.812;7.738;2022-08-01T11:38:35;4.77;;;3.80;;
3845;SDS011;1938;50.812;7.738;2022-08-01T11:41:12;4.40;;;4.00;;
3845;SDS011;1938;50.812;7.738;2022-08-01T11:52:06;5.20;;;3.90;;
3845;SDS011;1938;50.812;7.738;2022-08-01T11:54:39;3.83;;;3.20;;
3845;SDS011;1938;50.812;7.738;2022-08-01T11:57:07;3.77;;;3.13;;
3845;SDS011;1938;50.812;7.738;2022-08-01T11:59:39;5.23;;;3.70;;
3845;SDS011;1938;50.812;7.738;2022-08-01T12:04:46;9.33;;;3.70;;
3845;SDS011;1938;50.812;7.738;2022-08-01T12:07:13;3.40;;;3.10;;
3845;SDS011;1938;50.812;7.738;2022-08-01T12:09:39;4.40;;;3.67;;
3845;SDS011;1938;50.812;7.738;2022-08-01T12:12:05;5.70;;;4.47;;
3845;SDS011;1938;50.812;7.738;2022-08-01T12:14:31;5.67;;;4.90;;
3845;SDS011;1938;50.812;7.738;2022-08-01T12:16:57;4.50;;;3.50;;
3845;SDS011;1938;50.812;7.738;2022-08-01T12:19:23;4.60;;;3.83;;
3845;SDS011;1938;50.812;7.738;2022-08-01T12:22:08;5.60;;;3.20;;
3845;SDS011;1938;50.812;7.738;2022-08-01T12:24:36;6.43;;;3.80;;
3845;SDS011;1938;50.812;7.738;2022-08-01T12:27:02;7.33;;;3.40;;
3845;SDS011;1938;50.812;7.738;2022-08-01T12:29:39;3.90;;;2.90;;
3845;SDS011;1938;50.812;7.738;2022-08-01T12:34:54;3.53;;;2.90;;
3845;SDS011;1938;50.812;7.738;2022-08-01T12:37:20;4.50;;;3.63;;
3845;SDS011;1938;50.812;7.738;2022-08-01T12:39:47;5.50;;;3.20;;
3845;SDS011;1938;50.812;7.738;2022-08-01T12:42:12;3.60;;;2.43;;
3845;SDS011;1938;50.812;7.738;2022-08-01T12:44:39;5.30;;;3.33;;
3845;SDS011;1938;50.812;7.738;2022-08-01T12:47:06;4.73;;;3.23;;
3845;SDS011;1938;50.812;7.738;2022-08-01T12:49:34;4.87;;;3.50;;
3845;SDS011;1938;50.812;7.738;2022-08-01T12:52:01;4.37;;;3.47;;
3845;SDS011;1938;50.812;7.738;2022-08-01T12:54:27;5.23;;;2.90;;
3845;SDS011;1938;50.812;7.738;2022-08-01T12:56:53;3.80;;;3.00;;
3845;SDS011;1938;50.812;7.738;2022-08-01T12:59:26;4.13;;;2.90;;
3845;SDS011;1938;50.812;7.738;2022-08-01T13:01:55;4.30;;;3.03;;
3845;SDS011;1938;50.812;7.738;2022-08-01T13:04:22;3.70;;;3.10;;
3845;SDS011;1938;50.812;7.738;2022-08-01T13:06:54;4.47;;;2.60;;
3845;SDS011;1938;50.812;7.738;2022-08-01T13:09:19;9.60;;;2.90;;
3845;SDS011;1938;50.812;7.738;2022-08-01T13:11:45;4.20;;;2.83;;
3845;SDS011;1938;50.812;7.738;2022-08-01T13:14:28;4.27;;;3.37;;
3845;SDS011;1938;50.812;7.738;2022-08-01T13:16:54;4.70;;;3.30;;
3845;SDS011;1938;50.812;7.738;2022-08-01T13:19:20;4.63;;;3.70;;
3845;SDS011;1938;50.812;7.738;2022-08-01T13:21:55;4.57;;;3.53;;
3845;SDS011;1938;50.812;7.738;2022-08-01T13:24:25;5.67;;;4.10;;
3845;SDS011;1938;50.812;7.738;2022-08-01T13:27:00;5.83;;;3.40;;
3845;SDS011;1938;50.812;7.738;2022-08-01T13:29:46;3.90;;;3.50;;
3845;SDS011;1938;50.812;7.738;2022-08-01T13:32:15;3.80;;;3.30;;
3845;SDS011;1938;50.812;7.738;2022-08-01T13:34:42;3.20;;;2.90;;
3845;SDS011;1938;50.812;7.738;2022-08-01T13:37:08;8.40;;;3.60;;
3845;SDS011;1938;50.812;7.738;2022-08-01T13:39:33;4.10;;;2.83;;
3845;SDS011;1938;50.812;7.738;2022-08-01T13:42:05;3.80;;;3.07;;
3845;SDS011;1938;50.812;7.738;2022-08-01T13:44:35;4.63;;;2.60;;
3845;SDS011;1938;50.812;7.738;2022-08-01T13:47:01;3.90;;;2.40;;
3845;SDS011;1938;50.812;7.738;2022-08-01T13:49:29;3.13;;;2.40;;
3845;SDS011;1938;50.812;7.738;2022-08-01T13:51:55;2.77;;;2.10;;
3845;SDS011;1938;50.812;7.738;2022-08-01T13:54:20;4.93;;;2.50;;
3845;SDS011;1938;50.812;7.738;2022-08-01T13:56:46;3.90;;;2.50;;
3845;SDS011;1938;50.812;7.738;2022-08-01T13:59:12;4.17;;;2.60;;
3845;SDS011;1938;50.812;7.738;2022-08-01T14:01:37;4.30;;;3.17;;
3845;SDS011;1938;50.812;7.738;2022-08-01T14:04:03;6.97;;;2.63;;
3845;SDS011;1938;50.812;7.738;2022-08-01T14:06:30;4.20;;;3.13;;
3845;SDS011;1938;50.812;7.738;2022-08-01T14:08:57;4.53;;;2.50;;
3845;SDS011;1938;50.812;7.738;2022-08-01T14:11:23;3.80;;;2.23;;
3845;SDS011;1938;50.812;7.738;2022-08-01T14:13:49;4.77;;;2.77;;
3845;SDS011;1938;50.812;7.738;2022-08-01T14:16:14;3.40;;;2.70;;
3845;SDS011;1938;50.812;7.738;2022-08-01T14:18:41;4.40;;;2.67;;
3845;SDS011;1938;50.812;7.738;2022-08-01T14:21:06;5.90;;;2.27;;
3845;SDS011;1938;50.812;7.738;2022-08-01T14:23:32;2.70;;;2.10;;
3845;SDS011;1938;50.812;7.738;2022-08-01T14:25:57;3.63;;;2.77;;
3845;SDS011;1938;50.812;7.738;2022-08-01T14:28:23;27.23;;;19.67;;
3845;SDS011;1938;50.812;7.738;2022-08-01T14:30:50;3.57;;;2.67;;
3845;SDS011;1938;50.812;7.738;2022-08-01T14:33:16;4.13;;;2.57;;
3845;SDS011;1938;50.812;7.738;2022-08-01T14:35:41;2.60;;;2.00;;
3845;SDS011;1938;50.812;7.738;2022-08-01T14:38:07;4.00;;;2.30;;
3845;SDS011;1938;50.812;7.738;2022-08-01T14:40:33;4.27;;;2.60;;
3845;SDS011;1938;50.812;7.738;2022-08-01T14:42:59;3.70;;;2.40;;
3845;SDS011;1938;50.812;7.738;2022-08-01T14:45:27;3.37;;;2.13;;
3845;SDS011;1938;50.812;7.738;2022-08-01T14:47:53;3.50;;;2.57;;
3845;SDS011;1938;50.812;7.738;2022-08-01T14:50:19;3.40;;;2.80;;
3845;SDS011;1938;50.812;7.738;2022-08-01T14:52:45;5.80;;;2.43;;
3845;SDS011;1938;50.812;7.738;2022-08-01T14:55:11;3.80;;;2.03;;
3845;SDS011;1938;50.812;7.738;2022-08-01T14:57:37;3.53;;;2.20;;
3845;SDS011;1938;50.812;7.738;2022-08-01T15:00:05;2.70;;;2.00;;
3845;SDS011;1938;50.812;7.738;2022-08-01T15:02:36;2.80;;;2.20;;
3845;SDS011;1938;50.812;7.738;2022-08-01T15:05:02;2.90;;;2.17;;
3845;SDS011;1938;50.812;7.738;2022-08-01T15:07:27;3.07;;;1.80;;
3845;SDS011;1938;50.812;7.738;2022-08-01T15:09:54;3.60;;;2.43;;
3845;SDS011;1938;50.812;7.738;2022-08-01T15:12:21;2.70;;;1.90;;
3845;SDS011;1938;50.812;7.738;2022-08-01T15:14:46;1.80;;;1.43;;
3845;SDS011;1938;50.812;7.738;2022-08-01T15:19:41;6.70;;;2.00;;
3845;SDS011;1938;50.812;7.738;2022-08-01T15:22:09;3.00;;;1.77;;
3845;SDS011;1938;50.812;7.738;2022-08-01T15:24:34;3.00;;;1.50;;
3845;SDS011;1938;50.812;7.738;2022-08-01T15:27:00;2.67;;;1.70;;
3845;SDS011;1938;50.812;7.738;2022-08-01T15:29:25;2.47;;;1.70;;
3845;SDS011;1938;50.812;7.738;2022-08-01T15:31:51;3.50;;;1.93;;
3845;SDS011;1938;50.812;7.738;2022-08-01T15:34:17;4.43;;;1.97;;
3845;SDS011;1938;50.812;7.738;2022-08-01T15:36:42;4.60;;;1.73;;
3845;SDS011;1938;50.812;7.738;2022-08-01T15:39:08;2.30;;;1.70;;
3845;SDS011;1938;50.812;7.738;2022-08-01T15:41:34;2.27;;;1.57;;
3845;SDS011;1938;50.812;7.738;2022-08-01T15:44:00;4.17;;;2.00;;
3845;SDS011;1938;50.812;7.738;2022-08-01T15:46:26;4.40;;;1.80;;
3845;SDS011;1938;50.812;7.738;2022-08-01T15:48:51;2.47;;;1.67;;
3845;SDS011;1938;50.812;7.738;2022-08-01T15:51:17;2.73;;;1.83;;
3845;SDS011;1938;50.812;7.738;2022-08-01T15:53:42;2.30;;;1.60;;
3845;SDS011;1938;50.812;7.738;2022-08-01T15:56:11;2.93;;;1.90;;